createdAt,value
2018-11-22T00:01:55.483Z,75.65
2018-11-22T00:04:43.962Z,76.98
2018-11-22T00:07:32.526Z,76.54
2018-11-22T00:10:21.360Z,77.58
2018-11-22T00:13:09.701Z,78.02
2018-11-22T00:15:58.160Z,79.74
2018-11-22T00:18:46.607Z,77.60
2018-11-22T00:21:35.195Z,76.91
2018-11-22T00:24:23.402Z,77.42
2018-11-22T00:27:11.818Z,78.92
2018-11-22T00:30:00.161Z,79.34
2018-11-22T00:32:48.616Z,78.60
2018-11-22T00:35:36.941Z,78.47
2018-11-22T00:38:25.380Z,81.30
2018-11-22T00:40:54.294Z,79.08
2018-11-22T00:43:35.943Z,77.90
2018-11-22T00:46:17.844Z,77.56
2018-11-22T00:48:58.920Z,78.36
2018-11-22T00:51:40.746Z,78.49
2018-11-22T00:54:21.829Z,78.83
2018-11-22T00:57:03.522Z,80.30
2018-11-22T00:59:45.127Z,80.21
2018-11-22T01:02:14.200Z,78.85
2018-11-22T01:05:02.628Z,77.85
2018-11-22T01:07:50.985Z,78.37
2018-11-22T01:10:39.392Z,78.49
2018-11-22T01:13:27.718Z,79.63
2018-11-22T01:16:16.290Z,79.77
2018-11-22T01:19:04.985Z,79.76
2018-11-22T01:21:34.305Z,80.47
2018-11-22T01:24:22.702Z,78.30
2018-11-22T01:27:11.070Z,78.60
2018-11-22T01:29:59.403Z,79.93
2018-11-22T01:32:48.838Z,80.19
2018-11-22T01:35:37.204Z,78.05
2018-11-22T01:38:25.521Z,78.90
2018-11-22T01:41:13.836Z,78.24
2018-11-22T01:44:02.303Z,78.33
2018-11-22T01:46:50.637Z,78.11
2018-11-22T01:49:39.055Z,78.55
2018-11-22T01:52:27.298Z,78.99
2018-11-22T01:55:34.717Z,78.80
2018-11-22T01:58:23.099Z,80.33
2018-11-22T02:01:11.443Z,79.24
2018-11-22T02:04:00.043Z,79.39
2018-11-22T02:06:48.441Z,78.45
2018-11-22T02:09:36.763Z,79.18
2018-11-22T02:12:25.134Z,80.10
2018-11-22T02:19:17.133Z,78.21
2018-11-22T02:22:05.492Z,79.13
2018-11-22T02:24:53.932Z,78.80
2018-11-22T02:27:42.503Z,81.19
2018-11-22T02:30:16.641Z,80.27
2018-11-22T02:33:05.216Z,81.14
2018-11-22T02:35:53.640Z,80.03
2018-11-22T02:38:42.022Z,80.59
2018-11-22T02:41:11.124Z,80.30
2018-11-22T02:47:12.556Z,79.47
2018-11-22T02:50:00.976Z,82.22
2018-11-22T02:52:49.757Z,79.35
2018-11-22T02:55:38.082Z,78.69
2018-11-22T02:58:26.418Z,76.99
2018-11-22T03:01:14.849Z,77.07
2018-11-22T03:04:03.279Z,79.58
2018-11-22T03:06:51.636Z,80.65
2018-11-22T03:09:39.937Z,77.59
2018-11-22T03:12:28.403Z,78.42
2018-11-22T03:15:16.769Z,77.69
2018-11-22T03:18:05.361Z,78.74
2018-11-22T03:20:53.709Z,78.24
2018-11-22T03:23:42.104Z,77.69
2018-11-22T03:26:30.419Z,77.10
2018-11-22T03:28:59.951Z,77.44
2018-11-22T03:31:48.303Z,78.35
2018-11-22T03:34:36.643Z,78.82
2018-11-22T03:37:25.038Z,77.93
2018-11-22T03:40:17.638Z,77.58
2018-11-22T03:42:59.457Z,76.38
2018-11-22T03:45:40.251Z,79.12
2018-11-22T03:48:22.035Z,78.68
2018-11-22T03:51:03.263Z,78.36
2018-11-22T03:53:44.815Z,79.78
2018-11-22T03:56:25.797Z,79.61
2018-11-22T03:58:55.091Z,78.45
2018-11-22T04:01:43.541Z,79.48
2018-11-22T04:04:32.148Z,78.73
2018-11-22T04:07:20.508Z,79.62
2018-11-22T04:10:09.823Z,78.41
2018-11-22T04:12:58.232Z,79.77
2018-11-22T04:15:46.690Z,79.42
2018-11-22T04:18:35.098Z,77.76
2018-11-22T04:21:23.445Z,77.53
2018-11-22T04:24:12.060Z,77.63
2018-11-22T04:27:01.098Z,79.29
2018-11-22T04:29:48.886Z,77.38
2018-11-22T04:32:37.185Z,79.41
2018-11-22T04:35:25.853Z,78.50
2018-11-22T04:37:54.883Z,77.32
2018-11-22T04:40:43.589Z,77.59
2018-11-22T04:43:12.645Z,77.53
2018-11-22T04:46:01.167Z,77.46
2018-11-22T04:48:49.567Z,77.68
2018-11-22T04:51:37.994Z,77.43
2018-11-22T04:54:26.411Z,79.11
2018-11-22T04:57:14.722Z,77.75
2018-11-22T05:00:03.294Z,77.56
2018-11-22T05:02:32.433Z,78.96
2018-11-22T05:05:22.169Z,78.01
2018-11-22T05:08:10.517Z,77.82
2018-11-22T05:10:39.507Z,75.78
2018-11-22T05:13:27.887Z,76.91
2018-11-22T05:16:16.259Z,77.34
2018-11-22T05:19:04.602Z,76.51
2018-11-22T05:21:53.023Z,78.40
2018-11-22T05:24:41.365Z,77.34
2018-11-22T05:27:29.764Z,79.54
2018-11-22T05:30:19.829Z,80.13
2018-11-22T05:32:48.952Z,81.43
2018-11-22T05:35:37.289Z,80.07
2018-11-22T05:38:25.735Z,78.83
2018-11-22T05:41:14.108Z,79.36
2018-11-22T05:43:43.381Z,80.25
2018-11-22T05:46:31.821Z,78.66
2018-11-22T05:49:00.871Z,78.05
2018-11-22T05:51:29.867Z,77.76
2018-11-22T05:54:18.301Z,78.12
2018-11-22T05:57:06.732Z,78.25
2018-11-22T05:59:35.748Z,78.56
2018-11-22T06:02:24.406Z,77.39
2018-11-22T06:05:13.372Z,79.39
2018-11-22T06:08:01.936Z,80.07
2018-11-22T06:10:32.571Z,81.65
2018-11-22T06:13:20.968Z,80.83
2018-11-22T06:16:09.311Z,81.46
2018-11-22T06:18:38.265Z,80.43
2018-11-22T06:21:07.361Z,80.08
2018-11-22T06:23:55.803Z,81.24
2018-11-22T06:26:44.162Z,80.55
2018-11-22T06:29:32.600Z,78.73
2018-11-22T06:32:21.133Z,79.69
2018-11-22T06:35:09.868Z,77.21
2018-11-22T06:37:39.071Z,76.81
2018-11-22T06:40:27.409Z,77.67
2018-11-22T06:43:08.687Z,80.71
2018-11-22T06:45:49.515Z,80.78
2018-11-22T06:48:18.780Z,79.11
2018-11-22T06:51:07.125Z,78.74
2018-11-22T06:53:55.449Z,79.58
2018-11-22T06:56:43.784Z,80.23
2018-11-22T06:59:13.047Z,80.47
2018-11-22T07:04:55.835Z,78.87
2018-11-22T07:07:44.260Z,79.67
2018-11-22T07:10:32.639Z,78.57
2018-11-22T07:13:02.146Z,79.64
2018-11-22T07:15:50.471Z,78.41
2018-11-22T07:18:38.795Z,79.90
2018-11-22T07:21:27.231Z,80.83
2018-11-22T07:24:15.722Z,81.46
2018-11-22T07:27:04.090Z,81.25
2018-11-22T07:29:52.452Z,79.88
2018-11-22T07:32:40.939Z,81.01
2018-11-22T07:35:31.016Z,81.59
2018-11-22T07:38:19.440Z,80.29
2018-11-22T07:40:48.474Z,78.20
2018-11-22T07:47:41.277Z,81.80
2018-11-22T07:52:59.401Z,79.51
2018-11-22T07:55:47.754Z,80.47
2018-11-22T07:58:36.119Z,81.48
2018-11-22T08:01:24.437Z,79.32
2018-11-22T08:03:53.402Z,78.53
2018-11-22T08:06:41.770Z,79.19
2018-11-22T08:09:30.380Z,78.12
2018-11-22T08:12:25.768Z,78.27
2018-11-22T08:14:47.867Z,77.35
2018-11-22T08:17:16.858Z,78.72
2018-11-22T08:19:45.830Z,80.19
2018-11-22T08:22:34.138Z,79.43
2018-11-22T08:25:03.617Z,76.83
2018-11-22T08:27:52.464Z,79.25
2018-11-22T08:30:22.344Z,80.03
2018-11-22T08:33:10.654Z,79.71
2018-11-22T08:35:39.608Z,78.29
2018-11-22T08:38:27.932Z,77.04
2018-11-22T08:41:16.299Z,76.41
2018-11-22T08:43:45.283Z,77.23
2018-11-22T08:46:33.680Z,79.70
2018-11-22T08:49:21.981Z,80.12
2018-11-22T08:52:10.378Z,78.80
2018-11-22T08:54:58.713Z,79.35
2018-11-22T08:57:47.115Z,77.32
2018-11-22T09:00:17.411Z,79.81
2018-11-22T09:03:05.778Z,79.36
2018-11-22T09:05:54.126Z,78.26
2018-11-22T09:08:23.109Z,77.28
2018-11-22T09:14:00.937Z,77.81
2018-11-22T09:16:29.958Z,74.90
2018-11-22T09:22:48.826Z,74.84
2018-11-22T09:25:37.204Z,76.47
2018-11-22T09:28:25.640Z,77.16
2018-11-22T09:34:44.568Z,77.92
2018-11-22T09:37:32.968Z,74.34
2018-11-22T09:40:22.955Z,76.55
2018-11-22T09:43:04.661Z,74.93
2018-11-22T09:45:45.642Z,75.15
2018-11-22T09:48:27.422Z,77.74
2018-11-22T09:51:08.655Z,77.53
2018-11-22T09:53:49.984Z,77.12
2018-11-22T09:56:31.425Z,75.51
2018-11-22T09:59:12.467Z,76.38
2018-11-22T10:01:41.501Z,76.99
2018-11-22T10:04:10.683Z,74.97
2018-11-22T10:06:39.777Z,77.38
2018-11-22T10:12:40.158Z,76.07
2018-11-22T10:15:30.188Z,77.44
2018-11-22T10:18:18.769Z,75.07
2018-11-22T10:21:07.138Z,76.43
2018-11-22T10:23:55.683Z,78.09
2018-11-22T10:26:43.460Z,77.06
2018-11-22T10:29:31.906Z,76.68
2018-11-22T10:32:20.172Z,74.71
2018-11-22T10:35:09.186Z,74.56
2018-11-22T10:37:38.184Z,74.04
2018-11-22T10:40:26.810Z,74.46
2018-11-22T10:43:15.236Z,73.83
2018-11-22T10:46:03.590Z,73.07
2018-11-22T10:48:52.021Z,72.17
2018-11-22T10:51:40.361Z,71.29
2018-11-22T10:54:28.765Z,71.51
2018-11-22T10:57:17.080Z,73.51
2018-11-22T11:00:07.910Z,72.13
2018-11-22T11:02:55.935Z,73.89
2018-11-22T11:06:03.383Z,73.57
2018-11-22T11:08:51.731Z,73.58
2018-11-22T11:11:40.111Z,73.64
2018-11-22T11:14:09.162Z,71.96
2018-11-22T11:16:57.605Z,72.51
2018-11-22T11:19:45.954Z,71.95
2018-11-22T11:22:34.345Z,71.42
2018-11-22T11:25:22.756Z,71.17
2018-11-22T11:28:11.128Z,69.55
2018-11-22T11:30:40.102Z,71.19
2018-11-22T11:33:09.582Z,70.50
2018-11-22T11:35:57.967Z,70.44
2018-11-22T11:38:45.461Z,69.29
2018-11-22T11:41:33.854Z,70.58
2018-11-22T11:44:22.484Z,72.55
2018-11-22T11:47:10.833Z,72.34
2018-11-22T11:49:59.728Z,70.76
2018-11-22T11:52:48.056Z,71.62
2018-11-22T11:55:36.873Z,71.71
2018-11-22T11:58:25.250Z,71.70
2018-11-22T12:01:14.197Z,72.47
2018-11-22T12:03:43.302Z,71.24
2018-11-22T12:06:31.816Z,71.25
2018-11-22T12:09:20.103Z,70.06
2018-11-22T12:12:08.469Z,71.17
2018-11-22T12:19:00.669Z,70.21
2018-11-22T12:21:49.043Z,70.99
2018-11-22T12:24:18.127Z,70.44
2018-11-22T12:27:06.525Z,69.37
2018-11-22T12:29:54.904Z,70.10
2018-11-22T12:33:02.329Z,69.86
2018-11-22T12:36:09.766Z,70.26
2018-11-22T12:38:58.165Z,69.94
2018-11-22T12:41:46.574Z,69.44
2018-11-22T12:44:28.106Z,68.28
2018-11-22T12:47:09.404Z,69.98
2018-11-22T12:49:38.360Z,70.26
2018-11-22T12:52:26.776Z,70.67
2018-11-22T12:54:56.003Z,70.23
2018-11-22T12:57:44.469Z,70.77
2018-11-22T13:00:15.210Z,70.84
2018-11-22T13:02:44.505Z,70.46
2018-11-22T13:05:14.933Z,70.14
2018-11-22T13:08:03.398Z,70.48
2018-11-22T13:10:51.847Z,68.72
2018-11-22T13:13:40.250Z,68.25
2018-11-22T13:16:28.694Z,68.52
2018-11-22T13:19:17.486Z,69.70
2018-11-22T13:22:06.027Z,70.40
2018-11-22T13:24:54.437Z,69.71
2018-11-22T13:27:43.091Z,69.82
2018-11-22T13:30:31.519Z,70.79
2018-11-22T13:33:00.654Z,71.46
2018-11-22T13:35:49.030Z,70.47
2018-11-22T13:38:37.322Z,69.02
2018-11-22T13:41:25.685Z,69.96
2018-11-22T13:44:14.009Z,69.50
2018-11-22T13:47:02.559Z,69.37
2018-11-22T13:49:50.993Z,70.74
2018-11-22T13:52:39.387Z,71.13
2018-11-22T13:55:27.866Z,69.74
2018-11-22T13:57:59.351Z,68.58
2018-11-22T14:00:47.680Z,67.81
2018-11-22T14:03:36.146Z,69.38
2018-11-22T14:06:24.519Z,69.95
2018-11-22T14:09:12.934Z,72.33
2018-11-22T14:12:01.392Z,70.61
2018-11-22T14:14:49.754Z,71.33
2018-11-22T14:18:00.080Z,68.68
2018-11-22T14:20:48.475Z,70.13
2018-11-22T14:23:36.963Z,68.81
2018-11-22T14:26:25.329Z,68.84
2018-11-22T14:29:13.705Z,69.83
2018-11-22T14:31:42.890Z,69.29
2018-11-22T14:34:31.316Z,69.72
2018-11-22T14:37:19.753Z,69.15
2018-11-22T14:40:09.364Z,69.00
2018-11-22T14:42:58.054Z,69.47
2018-11-22T14:45:27.674Z,69.79
2018-11-22T14:48:16.094Z,68.66
2018-11-22T14:51:23.888Z,68.20
2018-11-22T14:54:12.298Z,68.32
2018-11-22T14:57:00.794Z,68.27
2018-11-22T14:59:49.251Z,69.36
2018-11-22T15:02:37.914Z,70.08
2018-11-22T15:05:26.367Z,69.32
2018-11-22T15:08:14.698Z,68.67
2018-11-22T15:11:03.039Z,67.82
2018-11-22T15:13:32.116Z,68.56
2018-11-22T15:16:20.456Z,70.07
2018-11-22T15:19:08.872Z,68.95
2018-11-22T15:21:57.206Z,67.74
2018-11-22T15:24:45.844Z,69.65
2018-11-22T15:27:34.187Z,69.06
2018-11-22T15:30:03.661Z,68.74
2018-11-22T15:32:52.060Z,69.24
2018-11-22T15:35:40.501Z,69.13
2018-11-22T15:38:28.892Z,69.28
2018-11-22T15:43:59.353Z,69.27
2018-11-22T15:46:40.928Z,69.93
2018-11-22T15:49:22.769Z,70.46
2018-11-22T15:51:51.759Z,70.23
2018-11-22T15:54:47.221Z,70.92
2018-11-22T15:57:35.798Z,70.90
2018-11-22T16:00:46.510Z,71.09
2018-11-22T16:03:15.458Z,71.94
2018-11-22T16:06:03.936Z,71.16
2018-11-22T16:08:52.255Z,71.19
2018-11-22T16:11:40.612Z,71.78
2018-11-22T16:14:28.973Z,71.93
2018-11-22T16:17:17.348Z,72.07
2018-11-22T16:20:06.258Z,72.44
2018-11-22T16:22:54.754Z,73.31
2018-11-22T16:25:43.050Z,73.09
2018-11-22T16:28:31.520Z,72.99
2018-11-22T16:31:19.863Z,73.62
2018-11-22T16:34:08.261Z,73.38
2018-11-22T16:40:11.863Z,73.83
2018-11-22T16:43:01.670Z,73.94
2018-11-22T16:45:50.049Z,75.66
2018-11-22T16:48:38.451Z,74.42
2018-11-22T16:51:26.762Z,74.50
2018-11-22T16:54:15.153Z,75.18
2018-11-22T16:57:03.673Z,76.00
2018-11-22T16:59:52.051Z,75.76
2018-11-22T17:02:40.394Z,75.22
2018-11-22T17:05:29.082Z,75.14
2018-11-22T17:08:17.437Z,75.63
2018-11-22T17:11:05.856Z,75.46
2018-11-22T17:13:54.190Z,75.34
2018-11-22T17:16:42.602Z,75.75
2018-11-22T17:19:31.105Z,77.16
2018-11-22T17:22:19.527Z,77.96
2018-11-22T17:24:48.830Z,78.91
2018-11-22T17:31:10.940Z,76.61
2018-11-22T17:33:59.346Z,77.67
2018-11-22T17:36:47.706Z,77.08
2018-11-22T17:39:36.150Z,76.39
2018-11-22T17:42:24.583Z,77.14
2018-11-22T17:45:14.414Z,76.63
2018-11-22T17:48:03.160Z,76.28
2018-11-22T17:50:51.529Z,76.82
2018-11-22T17:53:39.955Z,76.96
2018-11-22T17:56:28.346Z,76.88
2018-11-22T17:59:16.692Z,77.26
2018-11-22T18:01:45.723Z,77.55
2018-11-22T18:04:14.806Z,77.79
2018-11-22T18:07:03.241Z,77.92
2018-11-22T18:09:51.616Z,77.19
2018-11-22T18:12:40.378Z,77.83
2018-11-22T18:15:29.974Z,77.37
2018-11-22T18:18:18.389Z,77.85
2018-11-22T18:21:06.863Z,78.70
2018-11-22T18:23:55.255Z,78.66
2018-11-22T18:26:24.301Z,79.03
2018-11-22T18:29:12.651Z,78.75
2018-11-22T18:32:01.053Z,78.34
2018-11-22T18:34:49.433Z,78.92
2018-11-22T18:37:40.283Z,79.11
2018-11-22T18:40:30.198Z,79.41
2018-11-22T18:43:11.597Z,79.44
2018-11-22T18:45:52.482Z,79.42
2018-11-22T18:48:34.260Z,79.47
2018-11-22T18:51:15.835Z,79.27
2018-11-22T18:53:57.538Z,79.38
2018-11-22T18:56:26.720Z,80.09
2018-11-22T18:59:15.078Z,80.20
2018-11-22T19:02:03.449Z,79.95
2018-11-22T19:04:51.820Z,80.66
2018-11-22T19:07:40.850Z,79.85
2018-11-22T19:10:48.281Z,79.67
2018-11-22T19:13:36.694Z,79.66
2018-11-22T19:16:25.070Z,80.68
2018-11-22T19:19:13.479Z,81.07
2018-11-22T19:22:01.830Z,80.10
2018-11-22T19:24:50.200Z,80.57
2018-11-22T19:27:38.551Z,79.83
2018-11-22T19:30:37.007Z,80.65
2018-11-22T19:33:20.329Z,80.41
2018-11-22T19:36:08.770Z,81.15
2018-11-22T19:38:57.061Z,80.98
2018-11-22T19:41:45.461Z,80.20
2018-11-22T19:44:33.815Z,82.11
2018-11-22T19:47:03.025Z,81.79
2018-11-22T19:49:51.350Z,80.48
2018-11-22T19:52:39.730Z,81.04
2018-11-22T19:55:29.319Z,80.67
2018-11-22T19:58:18.244Z,81.30
2018-11-22T20:00:47.343Z,81.86
2018-11-22T20:03:35.738Z,82.46
2018-11-22T20:06:24.167Z,82.46
2018-11-22T20:09:12.654Z,82.37
2018-11-22T20:11:41.709Z,82.23
2018-11-22T20:14:30.025Z,82.04
2018-11-22T20:17:18.402Z,81.46
2018-11-22T20:20:07.913Z,81.15
2018-11-22T20:22:56.722Z,82.12
2018-11-22T20:25:45.192Z,81.31
2018-11-22T20:28:33.639Z,81.37
2018-11-22T20:31:21.992Z,81.86
2018-11-22T20:34:10.537Z,81.95
2018-11-22T20:36:58.919Z,80.14
2018-11-22T20:39:47.298Z,80.25
2018-11-22T20:42:16.683Z,80.20
2018-11-22T20:45:06.108Z,80.68
2018-11-22T20:48:13.618Z,80.97
2018-11-22T20:51:02.122Z,81.87
2018-11-22T20:53:31.299Z,80.27
2018-11-22T20:56:20.006Z,80.37
2018-11-22T20:58:48.890Z,80.94
2018-11-22T21:01:37.338Z,80.32
2018-11-22T21:04:25.937Z,79.60
2018-11-22T21:06:55.688Z,80.43
2018-11-22T21:09:43.818Z,79.69
2018-11-22T21:12:12.832Z,79.90
2018-11-22T21:15:01.253Z,80.20
2018-11-22T21:17:30.528Z,79.60
2018-11-22T21:20:20.858Z,79.30
2018-11-22T21:22:49.989Z,79.55
2018-11-22T21:25:38.559Z,79.69
2018-11-22T21:28:26.920Z,80.38
2018-11-22T21:30:56.109Z,80.04
2018-11-22T21:33:25.299Z,79.24
2018-11-22T21:36:13.720Z,80.92
2018-11-22T21:39:02.444Z,80.89
2018-11-22T21:44:51.030Z,79.54
2018-11-22T21:47:31.960Z,79.26
2018-11-22T21:50:14.595Z,79.31
2018-11-22T21:52:56.210Z,79.12
2018-11-22T21:55:38.139Z,79.67
2018-11-22T21:58:07.087Z,79.52
2018-11-22T22:00:55.550Z,79.42
2018-11-22T22:03:43.978Z,79.78
2018-11-22T22:06:32.410Z,80.08
2018-11-22T22:09:20.895Z,80.17
2018-11-22T22:11:49.991Z,79.99
2018-11-22T22:14:38.290Z,80.18
2018-11-22T22:17:26.887Z,80.55
2018-11-22T22:20:19.811Z,80.34
2018-11-22T22:23:13.247Z,82.00
2018-11-22T22:25:56.590Z,82.44
2018-11-22T22:28:44.928Z,83.02
2018-11-22T22:31:33.266Z,82.67
2018-11-22T22:34:21.862Z,82.58
2018-11-22T22:37:10.218Z,82.52
2018-11-22T22:40:03.580Z,80.83
2018-11-22T22:42:47.891Z,81.11
2018-11-22T22:45:36.260Z,81.04
2018-11-22T22:48:24.706Z,81.01
2018-11-22T22:51:13.207Z,80.79
2018-11-22T22:54:01.628Z,80.45
2018-11-22T22:56:50.692Z,80.80
2018-11-22T22:59:39.058Z,80.75
2018-11-22T23:02:27.510Z,80.88
2018-11-22T23:05:15.968Z,81.77
2018-11-22T23:08:06.875Z,81.42
2018-11-22T23:10:55.212Z,81.59
2018-11-22T23:13:43.619Z,80.69
2018-11-22T23:16:32.045Z,80.82
2018-11-22T23:19:20.485Z,80.50
2018-11-22T23:22:08.909Z,81.48
2018-11-22T23:24:37.954Z,81.56
2018-11-22T23:27:26.291Z,81.01
2018-11-22T23:30:19.076Z,81.02
2018-11-22T23:33:08.812Z,81.07
2018-11-22T23:35:57.153Z,80.97
2018-11-22T23:38:45.544Z,80.98
2018-11-22T23:41:14.591Z,81.35
2018-11-22T23:44:03.093Z,81.14
2018-11-22T23:46:51.491Z,81.07
2018-11-22T23:49:39.892Z,81.43
2018-11-22T23:52:09.068Z,81.71
2018-11-22T23:54:57.556Z,81.01
2018-11-22T23:57:46.076Z,81.21
